Kezdőlap
METAR-TAF:

METAR-TAF

Repülőterek :

Lawrence Municipal Airport

Lawrence, Kansas, Amerikai Egyesült Államok

földrajzi szélesség: 39-00-30N, földrajzi hosszúság: 095-12-42W, magasság: 253 m

Jelenlegi meteorológiai megfigyelések

A jelentés 1 órával és 7 perccel ezelõtt készült, 14:52 UTC
Kelet-északkeleti szél 5 kt
Hőmérséklet 12°C
Páratartalom 76%
Légköri nyomás 1026 hPa
Látótávolság: 16.1 km
Borult 6000 lábon
enyhe esõ

METAR: KLWC 111452Z AUTO 07005KT 10SM -RA OVC060 12/08 A3029 RMK AO1 RAB20 SLP257 P0000 60000 T01170083 51023

Idő: 10:59 (15:59 UTC)


TAF: hiányzik

Meteorológiai megfigyelések és előrejelzések több, mint 4000 repülőtéren (METAR és TAF jelentéseket).

A térképen piros és sárga pontok jelzik az elérhető meteorológiai állomásokat.

Mozgassa az egeret a pont fölött, hogy megjelenjen az állomás neve.

Azután kattintson az időjárási megfigyelések és előrejelzések megtekintéséhez.

A térkép megváltoztatása: kattintson a fekete keresztel jelölt zöld gombra ráközelítéshez, a vonallal jelölt zöld gombra távolításhoz, vagy a zöld nyilakra a szomszédos térképek eléréséhez.


METAR-TAF: